sensor_id;sensor_type;location;lat;lon;timestamp;temperature;humidity
18105;DHT22;9179;50.968;3.134;2024-01-15T00:00:29;4.30;99.90
18105;DHT22;9179;50.968;3.134;2024-01-15T00:02:56;4.30;99.90
18105;DHT22;9179;50.968;3.134;2024-01-15T00:05:24;4.40;99.90
18105;DHT22;9179;50.968;3.134;2024-01-15T00:07:51;4.50;99.90
18105;DHT22;9179;50.968;3.134;2024-01-15T00:10:18;4.50;99.90
18105;DHT22;9179;50.968;3.134;2024-01-15T00:12:45;4.60;99.90
18105;DHT22;9179;50.968;3.134;2024-01-15T00:15:12;4.80;99.90
18105;DHT22;9179;50.968;3.134;2024-01-15T00:17:41;4.90;99.90
18105;DHT22;9179;50.968;3.134;2024-01-15T00:20:08;5.00;99.90
18105;DHT22;9179;50.968;3.134;2024-01-15T00:22:36;5.10;99.90
18105;DHT22;9179;50.968;3.134;2024-01-15T00:25:03;5.20;99.90
18105;DHT22;9179;50.968;3.134;2024-01-15T00:27:31;5.20;99.90
18105;DHT22;9179;50.968;3.134;2024-01-15T00:29:58;5.20;99.90
18105;DHT22;9179;50.968;3.134;2024-01-15T00:32:25;5.20;99.90
18105;DHT22;9179;50.968;3.134;2024-01-15T00:34:53;5.20;99.90
18105;DHT22;9179;50.968;3.134;2024-01-15T00:37:20;5.20;99.90
18105;DHT22;9179;50.968;3.134;2024-01-15T00:39:47;5.30;99.90
18105;DHT22;9179;50.968;3.134;2024-01-15T00:42:15;5.30;99.90
18105;DHT22;9179;50.968;3.134;2024-01-15T00:44:42;5.40;99.90
18105;DHT22;9179;50.968;3.134;2024-01-15T00:47:08;5.40;99.90
18105;DHT22;9179;50.968;3.134;2024-01-15T00:49:35;5.40;99.90
18105;DHT22;9179;50.968;3.134;2024-01-15T00:52:04;5.50;99.90
18105;DHT22;9179;50.968;3.134;2024-01-15T00:54:31;5.50;99.90
18105;DHT22;9179;50.968;3.134;2024-01-15T00:56:58;5.50;99.90
18105;DHT22;9179;50.968;3.134;2024-01-15T00:59:26;5.50;99.90
18105;DHT22;9179;50.968;3.134;2024-01-15T01:01:53;5.50;99.90
18105;DHT22;9179;50.968;3.134;2024-01-15T01:04:20;5.60;99.90
18105;DHT22;9179;50.968;3.134;2024-01-15T01:06:47;5.60;99.90
18105;DHT22;9179;50.968;3.134;2024-01-15T01:09:15;5.60;99.90
18105;DHT22;9179;50.968;3.134;2024-01-15T01:11:43;5.60;99.90
18105;DHT22;9179;50.968;3.134;2024-01-15T01:14:10;5.60;99.90
18105;DHT22;9179;50.968;3.134;2024-01-15T01:16:37;5.70;99.90
18105;DHT22;9179;50.968;3.134;2024-01-15T01:19:05;5.70;99.90
18105;DHT22;9179;50.968;3.134;2024-01-15T01:21:33;5.70;99.90
18105;DHT22;9179;50.968;3.134;2024-01-15T01:24:00;5.70;99.90
18105;DHT22;9179;50.968;3.134;2024-01-15T01:26:29;5.70;99.90
18105;DHT22;9179;50.968;3.134;2024-01-15T01:28:56;5.70;99.90
18105;DHT22;9179;50.968;3.134;2024-01-15T01:31:23;5.80;99.90
18105;DHT22;9179;50.968;3.134;2024-01-15T01:33:50;5.80;99.90
18105;DHT22;9179;50.968;3.134;2024-01-15T01:36:18;5.80;99.90
18105;DHT22;9179;50.968;3.134;2024-01-15T01:38:45;5.80;99.90
18105;DHT22;9179;50.968;3.134;2024-01-15T01:41:12;5.80;99.90
18105;DHT22;9179;50.968;3.134;2024-01-15T01:43:40;5.80;99.90
18105;DHT22;9179;50.968;3.134;2024-01-15T01:46:08;5.70;99.90
18105;DHT22;9179;50.968;3.134;2024-01-15T01:48:35;5.80;99.90
18105;DHT22;9179;50.968;3.134;2024-01-15T01:51:04;5.70;99.90
18105;DHT22;9179;50.968;3.134;2024-01-15T01:53:32;5.70;99.90
18105;DHT22;9179;50.968;3.134;2024-01-15T01:56:01;5.70;99.90
18105;DHT22;9179;50.968;3.134;2024-01-15T01:58:29;5.70;99.90
18105;DHT22;9179;50.968;3.134;2024-01-15T02:00:58;5.60;99.90
18105;DHT22;9179;50.968;3.134;2024-01-15T02:03:27;5.60;99.90
18105;DHT22;9179;50.968;3.134;2024-01-15T02:05:54;5.60;99.90
18105;DHT22;9179;50.968;3.134;2024-01-15T02:08:22;5.60;99.90
18105;DHT22;9179;50.968;3.134;2024-01-15T02:10:49;5.50;99.90
18105;DHT22;9179;50.968;3.134;2024-01-15T02:13:17;5.40;99.90
18105;DHT22;9179;50.968;3.134;2024-01-15T02:15:45;5.30;99.90
18105;DHT22;9179;50.968;3.134;2024-01-15T02:18:14;5.10;99.90
18105;DHT22;9179;50.968;3.134;2024-01-15T02:20:41;5.20;99.90
18105;DHT22;9179;50.968;3.134;2024-01-15T02:23:12;5.30;99.90
18105;DHT22;9179;50.968;3.134;2024-01-15T02:25:40;5.30;99.90
18105;DHT22;9179;50.968;3.134;2024-01-15T02:28:09;5.40;99.90
18105;DHT22;9179;50.968;3.134;2024-01-15T02:30:37;5.30;99.90
18105;DHT22;9179;50.968;3.134;2024-01-15T02:33:05;5.30;99.90
18105;DHT22;9179;50.968;3.134;2024-01-15T02:35:32;5.20;99.90
18105;DHT22;9179;50.968;3.134;2024-01-15T02:37:59;5.20;99.90
18105;DHT22;9179;50.968;3.134;2024-01-15T02:40:28;5.20;99.90
18105;DHT22;9179;50.968;3.134;2024-01-15T02:42:55;5.20;99.90
18105;DHT22;9179;50.968;3.134;2024-01-15T02:45:22;5.10;99.90
18105;DHT22;9179;50.968;3.134;2024-01-15T02:47:49;5.10;99.90
18105;DHT22;9179;50.968;3.134;2024-01-15T02:50:16;5.10;99.90
18105;DHT22;9179;50.968;3.134;2024-01-15T02:52:43;5.00;99.90
18105;DHT22;9179;50.968;3.134;2024-01-15T02:55:10;5.10;99.90
18105;DHT22;9179;50.968;3.134;2024-01-15T02:57:39;5.10;99.90
18105;DHT22;9179;50.968;3.134;2024-01-15T03:00:07;5.10;99.90
18105;DHT22;9179;50.968;3.134;2024-01-15T03:02:38;5.10;99.90
18105;DHT22;9179;50.968;3.134;2024-01-15T03:05:06;5.10;99.90
18105;DHT22;9179;50.968;3.134;2024-01-15T03:07:33;5.10;99.90
18105;DHT22;9179;50.968;3.134;2024-01-15T03:10:00;5.20;99.90
18105;DHT22;9179;50.968;3.134;2024-01-15T03:12:28;5.20;99.90
18105;DHT22;9179;50.968;3.134;2024-01-15T03:14:56;5.20;99.90
18105;DHT22;9179;50.968;3.134;2024-01-15T03:17:23;5.20;99.90
18105;DHT22;9179;50.968;3.134;2024-01-15T03:19:50;5.20;99.90
18105;DHT22;9179;50.968;3.134;2024-01-15T03:22:17;5.20;99.90
18105;DHT22;9179;50.968;3.134;2024-01-15T03:24:44;5.20;99.90
18105;DHT22;9179;50.968;3.134;2024-01-15T03:27:11;5.20;99.90
18105;DHT22;9179;50.968;3.134;2024-01-15T03:29:39;5.40;99.90
18105;DHT22;9179;50.968;3.134;2024-01-15T03:32:07;5.40;99.90
18105;DHT22;9179;50.968;3.134;2024-01-15T03:34:34;5.50;99.90
18105;DHT22;9179;50.968;3.134;2024-01-15T03:37:01;5.40;99.90
18105;DHT22;9179;50.968;3.134;2024-01-15T03:39:29;5.40;99.90
18105;DHT22;9179;50.968;3.134;2024-01-15T03:41:56;5.30;99.90
18105;DHT22;9179;50.968;3.134;2024-01-15T03:44:23;5.40;99.90
18105;DHT22;9179;50.968;3.134;2024-01-15T03:46:50;5.30;99.90
18105;DHT22;9179;50.968;3.134;2024-01-15T03:49:18;5.40;99.90
18105;DHT22;9179;50.968;3.134;2024-01-15T03:51:45;5.40;99.90
18105;DHT22;9179;50.968;3.134;2024-01-15T03:54:12;5.50;99.90
18105;DHT22;9179;50.968;3.134;2024-01-15T03:56:39;5.60;99.90
18105;DHT22;9179;50.968;3.134;2024-01-15T03:59:06;5.50;99.90
18105;DHT22;9179;50.968;3.134;2024-01-15T04:01:33;5.50;99.90
18105;DHT22;9179;50.968;3.134;2024-01-15T04:04:00;5.60;99.90
18105;DHT22;9179;50.968;3.134;2024-01-15T04:06:28;5.60;99.90
18105;DHT22;9179;50.968;3.134;2024-01-15T04:08:55;5.60;99.90
18105;DHT22;9179;50.968;3.134;2024-01-15T04:11:22;5.60;99.90
18105;DHT22;9179;50.968;3.134;2024-01-15T04:13:50;5.60;99.90
18105;DHT22;9179;50.968;3.134;2024-01-15T04:16:17;5.60;99.90
18105;DHT22;9179;50.968;3.134;2024-01-15T04:18:44;5.60;99.90
18105;DHT22;9179;50.968;3.134;2024-01-15T04:21:11;5.60;99.90
18105;DHT22;9179;50.968;3.134;2024-01-15T04:23:40;5.40;99.90
18105;DHT22;9179;50.968;3.134;2024-01-15T04:26:07;5.30;99.90
18105;DHT22;9179;50.968;3.134;2024-01-15T04:28:34;5.40;99.90
18105;DHT22;9179;50.968;3.134;2024-01-15T04:31:01;5.40;99.90
18105;DHT22;9179;50.968;3.134;2024-01-15T04:33:28;5.30;99.90
18105;DHT22;9179;50.968;3.134;2024-01-15T04:35:55;5.10;99.90
18105;DHT22;9179;50.968;3.134;2024-01-15T04:38:22;4.90;99.90
18105;DHT22;9179;50.968;3.134;2024-01-15T04:40:50;4.80;99.90
18105;DHT22;9179;50.968;3.134;2024-01-15T04:43:17;4.70;99.90
18105;DHT22;9179;50.968;3.134;2024-01-15T04:45:44;4.60;99.90
18105;DHT22;9179;50.968;3.134;2024-01-15T04:48:11;4.60;99.90
18105;DHT22;9179;50.968;3.134;2024-01-15T04:50:38;4.60;99.90
18105;DHT22;9179;50.968;3.134;2024-01-15T04:53:05;4.60;99.90
18105;DHT22;9179;50.968;3.134;2024-01-15T04:55:32;4.70;99.90
18105;DHT22;9179;50.968;3.134;2024-01-15T04:58:00;4.70;99.90
18105;DHT22;9179;50.968;3.134;2024-01-15T05:00:27;4.80;99.90
18105;DHT22;9179;50.968;3.134;2024-01-15T05:02:54;4.80;99.90
18105;DHT22;9179;50.968;3.134;2024-01-15T05:05:21;4.80;99.90
18105;DHT22;9179;50.968;3.134;2024-01-15T05:07:48;4.70;99.90
18105;DHT22;9179;50.968;3.134;2024-01-15T05:10:15;4.80;99.90
18105;DHT22;9179;50.968;3.134;2024-01-15T05:12:42;4.80;99.90
18105;DHT22;9179;50.968;3.134;2024-01-15T05:15:10;4.80;99.90
18105;DHT22;9179;50.968;3.134;2024-01-15T05:17:37;4.70;99.90
18105;DHT22;9179;50.968;3.134;2024-01-15T05:20:05;4.80;99.90
18105;DHT22;9179;50.968;3.134;2024-01-15T05:22:32;4.80;99.90
18105;DHT22;9179;50.968;3.134;2024-01-15T05:24:59;4.80;99.90
18105;DHT22;9179;50.968;3.134;2024-01-15T05:27:26;4.80;99.90
18105;DHT22;9179;50.968;3.134;2024-01-15T05:29:53;4.70;99.90
18105;DHT22;9179;50.968;3.134;2024-01-15T05:32:22;4.70;99.90
18105;DHT22;9179;50.968;3.134;2024-01-15T05:34:49;4.70;99.90
18105;DHT22;9179;50.968;3.134;2024-01-15T05:37:15;4.70;99.90
18105;DHT22;9179;50.968;3.134;2024-01-15T05:39:42;4.80;99.90
18105;DHT22;9179;50.968;3.134;2024-01-15T05:42:09;4.80;99.90
18105;DHT22;9179;50.968;3.134;2024-01-15T05:44:36;4.80;99.90
18105;DHT22;9179;50.968;3.134;2024-01-15T05:47:04;4.80;99.90
18105;DHT22;9179;50.968;3.134;2024-01-15T05:49:32;4.70;99.90
18105;DHT22;9179;50.968;3.134;2024-01-15T05:51:59;4.70;99.90
18105;DHT22;9179;50.968;3.134;2024-01-15T05:54:26;4.80;99.90
18105;DHT22;9179;50.968;3.134;2024-01-15T05:56:53;4.90;99.90
18105;DHT22;9179;50.968;3.134;2024-01-15T05:59:20;4.80;99.90
18105;DHT22;9179;50.968;3.134;2024-01-15T06:01:47;4.80;99.90
18105;DHT22;9179;50.968;3.134;2024-01-15T06:04:14;4.80;99.90
18105;DHT22;9179;50.968;3.134;2024-01-15T06:06:43;4.80;99.90
18105;DHT22;9179;50.968;3.134;2024-01-15T06:09:10;4.80;99.90
18105;DHT22;9179;50.968;3.134;2024-01-15T06:11:36;4.70;99.90
18105;DHT22;9179;50.968;3.134;2024-01-15T06:14:03;4.70;99.90
18105;DHT22;9179;50.968;3.134;2024-01-15T06:16:30;4.60;99.90
18105;DHT22;9179;50.968;3.134;2024-01-15T06:18:58;4.60;99.90
18105;DHT22;9179;50.968;3.134;2024-01-15T06:21:25;4.50;99.90
18105;DHT22;9179;50.968;3.134;2024-01-15T06:23:53;4.40;99.90
18105;DHT22;9179;50.968;3.134;2024-01-15T06:26:22;4.20;99.90
18105;DHT22;9179;50.968;3.134;2024-01-15T06:28:49;4.00;99.90
18105;DHT22;9179;50.968;3.134;2024-01-15T06:31:16;3.90;99.90
18105;DHT22;9179;50.968;3.134;2024-01-15T06:33:43;3.70;99.90
18105;DHT22;9179;50.968;3.134;2024-01-15T06:36:11;3.60;99.90
18105;DHT22;9179;50.968;3.134;2024-01-15T06:38:38;3.50;99.90
18105;DHT22;9179;50.968;3.134;2024-01-15T06:41:06;3.40;99.90
18105;DHT22;9179;50.968;3.134;2024-01-15T06:43:33;3.40;99.90
18105;DHT22;9179;50.968;3.134;2024-01-15T06:46:00;3.30;99.90
18105;DHT22;9179;50.968;3.134;2024-01-15T06:48:27;3.20;99.90
18105;DHT22;9179;50.968;3.134;2024-01-15T06:50:54;3.20;99.90
18105;DHT22;9179;50.968;3.134;2024-01-15T06:53:21;3.10;99.90
18105;DHT22;9179;50.968;3.134;2024-01-15T06:55:48;3.10;99.90
18105;DHT22;9179;50.968;3.134;2024-01-15T06:58:18;3.10;99.90
18105;DHT22;9179;50.968;3.134;2024-01-15T07:00:45;3.10;99.90
18105;DHT22;9179;50.968;3.134;2024-01-15T07:03:12;3.10;99.90
18105;DHT22;9179;50.968;3.134;2024-01-15T07:05:39;3.10;99.90
18105;DHT22;9179;50.968;3.134;2024-01-15T07:08:06;3.00;99.90
18105;DHT22;9179;50.968;3.134;2024-01-15T07:10:33;3.00;99.90
18105;DHT22;9179;50.968;3.134;2024-01-15T07:13:00;3.00;99.90
18105;DHT22;9179;50.968;3.134;2024-01-15T07:15:28;3.00;99.90
18105;DHT22;9179;50.968;3.134;2024-01-15T07:17:55;2.90;99.90
18105;DHT22;9179;50.968;3.134;2024-01-15T07:20:22;2.90;99.90
18105;DHT22;9179;50.968;3.134;2024-01-15T07:22:49;2.90;99.90
18105;DHT22;9179;50.968;3.134;2024-01-15T07:25:16;2.90;99.90
18105;DHT22;9179;50.968;3.134;2024-01-15T07:27:43;2.90;99.90
18105;DHT22;9179;50.968;3.134;2024-01-15T07:30:12;2.90;99.90
18105;DHT22;9179;50.968;3.134;2024-01-15T07:32:41;2.80;99.90
18105;DHT22;9179;50.968;3.134;2024-01-15T07:35:08;3.00;99.90
18105;DHT22;9179;50.968;3.134;2024-01-15T07:37:35;2.80;99.90
18105;DHT22;9179;50.968;3.134;2024-01-15T07:40:03;2.80;99.90
18105;DHT22;9179;50.968;3.134;2024-01-15T07:42:32;2.90;99.90
18105;DHT22;9179;50.968;3.134;2024-01-15T07:44:59;2.90;99.90
18105;DHT22;9179;50.968;3.134;2024-01-15T07:47:26;2.90;99.90
18105;DHT22;9179;50.968;3.134;2024-01-15T07:49:54;2.90;99.90
18105;DHT22;9179;50.968;3.134;2024-01-15T07:52:21;2.90;99.90
18105;DHT22;9179;50.968;3.134;2024-01-15T07:54:48;3.00;99.90
18105;DHT22;9179;50.968;3.134;2024-01-15T07:57:15;3.20;99.90
18105;DHT22;9179;50.968;3.134;2024-01-15T07:59:42;3.40;99.90
18105;DHT22;9179;50.968;3.134;2024-01-15T08:02:09;3.50;99.90
18105;DHT22;9179;50.968;3.134;2024-01-15T08:04:37;3.70;99.90
18105;DHT22;9179;50.968;3.134;2024-01-15T08:07:05;3.70;99.90
18105;DHT22;9179;50.968;3.134;2024-01-15T08:09:33;3.70;99.90
18105;DHT22;9179;50.968;3.134;2024-01-15T08:12:00;3.80;99.90
18105;DHT22;9179;50.968;3.134;2024-01-15T08:14:27;3.90;99.90
18105;DHT22;9179;50.968;3.134;2024-01-15T08:16:54;4.10;99.90
18105;DHT22;9179;50.968;3.134;2024-01-15T08:19:21;4.30;99.90
18105;DHT22;9179;50.968;3.134;2024-01-15T08:21:48;4.20;99.90
18105;DHT22;9179;50.968;3.134;2024-01-15T08:24:16;4.30;99.90
18105;DHT22;9179;50.968;3.134;2024-01-15T08:26:43;4.40;99.90
18105;DHT22;9179;50.968;3.134;2024-01-15T08:29:10;4.50;99.90
18105;DHT22;9179;50.968;3.134;2024-01-15T08:31:37;4.60;99.90
18105;DHT22;9179;50.968;3.134;2024-01-15T08:34:04;4.60;99.90
18105;DHT22;9179;50.968;3.134;2024-01-15T08:36:31;4.60;99.90
18105;DHT22;9179;50.968;3.134;2024-01-15T08:39:01;4.60;99.90
18105;DHT22;9179;50.968;3.134;2024-01-15T08:41:31;4.50;99.90
18105;DHT22;9179;50.968;3.134;2024-01-15T08:43:58;4.60;99.90
18105;DHT22;9179;50.968;3.134;2024-01-15T08:46:25;4.60;99.90
18105;DHT22;9179;50.968;3.134;2024-01-15T08:48:52;4.50;99.90
18105;DHT22;9179;50.968;3.134;2024-01-15T08:51:19;4.60;99.90
18105;DHT22;9179;50.968;3.134;2024-01-15T08:53:46;4.70;99.90
18105;DHT22;9179;50.968;3.134;2024-01-15T08:56:13;4.80;99.90
18105;DHT22;9179;50.968;3.134;2024-01-15T08:58:41;5.10;99.90
18105;DHT22;9179;50.968;3.134;2024-01-15T09:01:08;5.20;99.90
18105;DHT22;9179;50.968;3.134;2024-01-15T09:03:35;5.20;99.90
18105;DHT22;9179;50.968;3.134;2024-01-15T09:06:02;5.20;99.90
18105;DHT22;9179;50.968;3.134;2024-01-15T09:08:29;5.30;99.90
18105;DHT22;9179;50.968;3.134;2024-01-15T09:10:56;5.30;99.90
18105;DHT22;9179;50.968;3.134;2024-01-15T09:13:24;5.30;99.90
18105;DHT22;9179;50.968;3.134;2024-01-15T09:15:52;5.20;99.90
18105;DHT22;9179;50.968;3.134;2024-01-15T09:18:19;5.30;99.90
18105;DHT22;9179;50.968;3.134;2024-01-15T09:20:46;5.30;99.90
18105;DHT22;9179;50.968;3.134;2024-01-15T09:23:13;5.70;99.90
18105;DHT22;9179;50.968;3.134;2024-01-15T09:25:40;5.70;99.90
18105;DHT22;9179;50.968;3.134;2024-01-15T09:28:07;5.40;99.90
18105;DHT22;9179;50.968;3.134;2024-01-15T09:30:34;5.10;99.90
18105;DHT22;9179;50.968;3.134;2024-01-15T09:33:03;4.80;99.90
18105;DHT22;9179;50.968;3.134;2024-01-15T09:35:30;4.70;99.90
18105;DHT22;9179;50.968;3.134;2024-01-15T09:37:57;4.70;99.90
18105;DHT22;9179;50.968;3.134;2024-01-15T09:40:25;4.80;99.90
18105;DHT22;9179;50.968;3.134;2024-01-15T09:42:57;4.80;99.90
18105;DHT22;9179;50.968;3.134;2024-01-15T09:45:24;4.70;99.90
18105;DHT22;9179;50.968;3.134;2024-01-15T09:47:51;4.90;99.90
18105;DHT22;9179;50.968;3.134;2024-01-15T09:50:19;5.00;99.90
18105;DHT22;9179;50.968;3.134;2024-01-15T09:52:47;5.10;99.90
18105;DHT22;9179;50.968;3.134;2024-01-15T09:55:15;5.40;99.90
18105;DHT22;9179;50.968;3.134;2024-01-15T09:57:44;5.40;99.90
18105;DHT22;9179;50.968;3.134;2024-01-15T10:00:11;5.30;99.90
18105;DHT22;9179;50.968;3.134;2024-01-15T10:02:38;5.40;99.90
18105;DHT22;9179;50.968;3.134;2024-01-15T10:05:06;6.00;99.90
18105;DHT22;9179;50.968;3.134;2024-01-15T10:07:35;6.10;99.90
18105;DHT22;9179;50.968;3.134;2024-01-15T10:10:04;6.10;99.90
18105;DHT22;9179;50.968;3.134;2024-01-15T10:12:33;6.30;99.90
18105;DHT22;9179;50.968;3.134;2024-01-15T10:15:00;6.50;99.90
18105;DHT22;9179;50.968;3.134;2024-01-15T10:17:28;6.40;99.90
18105;DHT22;9179;50.968;3.134;2024-01-15T10:19:56;6.40;99.90
18105;DHT22;9179;50.968;3.134;2024-01-15T10:22:23;6.30;99.90
18105;DHT22;9179;50.968;3.134;2024-01-15T10:24:51;6.40;99.90
18105;DHT22;9179;50.968;3.134;2024-01-15T10:27:18;6.50;99.90
18105;DHT22;9179;50.968;3.134;2024-01-15T10:29:45;6.30;99.90
18105;DHT22;9179;50.968;3.134;2024-01-15T10:32:12;6.10;99.90
18105;DHT22;9179;50.968;3.134;2024-01-15T10:34:40;5.80;99.90
18105;DHT22;9179;50.968;3.134;2024-01-15T10:37:08;6.00;99.90
18105;DHT22;9179;50.968;3.134;2024-01-15T10:39:35;6.20;99.90
18105;DHT22;9179;50.968;3.134;2024-01-15T10:42:05;6.10;99.90
18105;DHT22;9179;50.968;3.134;2024-01-15T10:44:32;6.10;99.90
18105;DHT22;9179;50.968;3.134;2024-01-15T10:46:59;6.00;99.90
18105;DHT22;9179;50.968;3.134;2024-01-15T10:49:26;5.80;99.90
18105;DHT22;9179;50.968;3.134;2024-01-15T10:51:55;5.70;99.90
18105;DHT22;9179;50.968;3.134;2024-01-15T10:54:23;5.60;99.90
18105;DHT22;9179;50.968;3.134;2024-01-15T10:56:50;6.00;99.90
18105;DHT22;9179;50.968;3.134;2024-01-15T10:59:20;6.60;99.90
18105;DHT22;9179;50.968;3.134;2024-01-15T11:01:49;6.90;99.90
18105;DHT22;9179;50.968;3.134;2024-01-15T11:04:19;7.20;99.90
18105;DHT22;9179;50.968;3.134;2024-01-15T11:06:50;7.00;99.90
18105;DHT22;9179;50.968;3.134;2024-01-15T11:09:17;6.90;99.90
18105;DHT22;9179;50.968;3.134;2024-01-15T11:11:45;6.90;99.90
18105;DHT22;9179;50.968;3.134;2024-01-15T11:14:35;6.80;99.90
18105;DHT22;9179;50.968;3.134;2024-01-15T11:17:02;6.80;99.90
18105;DHT22;9179;50.968;3.134;2024-01-15T11:19:36;6.90;99.90
18105;DHT22;9179;50.968;3.134;2024-01-15T11:22:07;6.80;99.90
18105;DHT22;9179;50.968;3.134;2024-01-15T11:24:38;6.60;99.90
18105;DHT22;9179;50.968;3.134;2024-01-15T11:27:06;6.40;99.90
18105;DHT22;9179;50.968;3.134;2024-01-15T11:29:36;6.30;99.90
18105;DHT22;9179;50.968;3.134;2024-01-15T11:32:06;6.20;99.90
18105;DHT22;9179;50.968;3.134;2024-01-15T11:34:53;6.30;99.90
18105;DHT22;9179;50.968;3.134;2024-01-15T11:37:23;6.30;99.90
18105;DHT22;9179;50.968;3.134;2024-01-15T11:39:52;6.40;99.90
18105;DHT22;9179;50.968;3.134;2024-01-15T11:42:20;6.30;99.90
18105;DHT22;9179;50.968;3.134;2024-01-15T11:44:49;6.30;99.90
18105;DHT22;9179;50.968;3.134;2024-01-15T11:47:23;6.40;99.90
18105;DHT22;9179;50.968;3.134;2024-01-15T11:50:00;6.50;99.90
18105;DHT22;9179;50.968;3.134;2024-01-15T11:52:32;6.60;99.90
18105;DHT22;9179;50.968;3.134;2024-01-15T11:55:04;6.80;99.90
18105;DHT22;9179;50.968;3.134;2024-01-15T11:57:40;7.20;99.90
18105;DHT22;9179;50.968;3.134;2024-01-15T12:00:11;7.40;99.90
18105;DHT22;9179;50.968;3.134;2024-01-15T12:02:39;7.50;99.90
18105;DHT22;9179;50.968;3.134;2024-01-15T12:05:07;7.50;99.90
18105;DHT22;9179;50.968;3.134;2024-01-15T12:07:34;7.30;99.90
18105;DHT22;9179;50.968;3.134;2024-01-15T12:10:01;7.40;99.90
18105;DHT22;9179;50.968;3.134;2024-01-15T12:12:39;7.60;99.90
18105;DHT22;9179;50.968;3.134;2024-01-15T12:15:07;7.70;99.90
18105;DHT22;9179;50.968;3.134;2024-01-15T12:17:36;7.60;99.90
18105;DHT22;9179;50.968;3.134;2024-01-15T12:20:03;7.60;99.90
18105;DHT22;9179;50.968;3.134;2024-01-15T12:22:31;7.70;99.90
18105;DHT22;9179;50.968;3.134;2024-01-15T12:24:59;7.80;99.90
18105;DHT22;9179;50.968;3.134;2024-01-15T12:27:26;7.50;99.90
18105;DHT22;9179;50.968;3.134;2024-01-15T12:29:53;6.80;99.90
18105;DHT22;9179;50.968;3.134;2024-01-15T12:32:20;6.30;99.90
18105;DHT22;9179;50.968;3.134;2024-01-15T12:34:50;6.10;99.90
18105;DHT22;9179;50.968;3.134;2024-01-15T12:37:18;5.90;99.90
18105;DHT22;9179;50.968;3.134;2024-01-15T12:39:45;5.80;99.90
18105;DHT22;9179;50.968;3.134;2024-01-15T12:42:14;5.90;99.90
18105;DHT22;9179;50.968;3.134;2024-01-15T12:44:42;6.20;99.90
18105;DHT22;9179;50.968;3.134;2024-01-15T12:47:09;6.60;99.90
18105;DHT22;9179;50.968;3.134;2024-01-15T12:49:36;6.60;99.90
18105;DHT22;9179;50.968;3.134;2024-01-15T12:52:09;6.80;99.90
18105;DHT22;9179;50.968;3.134;2024-01-15T12:54:36;7.20;99.90
18105;DHT22;9179;50.968;3.134;2024-01-15T12:57:03;7.10;99.90
18105;DHT22;9179;50.968;3.134;2024-01-15T12:59:30;6.90;99.90
18105;DHT22;9179;50.968;3.134;2024-01-15T13:01:57;6.70;99.90
18105;DHT22;9179;50.968;3.134;2024-01-15T13:04:24;6.80;99.90
18105;DHT22;9179;50.968;3.134;2024-01-15T13:06:51;7.10;99.90
18105;DHT22;9179;50.968;3.134;2024-01-15T13:09:20;7.30;99.90
18105;DHT22;9179;50.968;3.134;2024-01-15T13:11:47;7.50;99.90
18105;DHT22;9179;50.968;3.134;2024-01-15T13:14:14;7.80;99.90
18105;DHT22;9179;50.968;3.134;2024-01-15T13:16:41;7.90;99.90
18105;DHT22;9179;50.968;3.134;2024-01-15T13:19:09;7.70;99.90
18105;DHT22;9179;50.968;3.134;2024-01-15T13:21:38;7.20;99.90
18105;DHT22;9179;50.968;3.134;2024-01-15T13:24:05;6.70;99.90
18105;DHT22;9179;50.968;3.134;2024-01-15T13:26:34;6.50;99.90
18105;DHT22;9179;50.968;3.134;2024-01-15T13:29:02;6.50;99.90
18105;DHT22;9179;50.968;3.134;2024-01-15T13:31:30;6.50;99.90
18105;DHT22;9179;50.968;3.134;2024-01-15T13:33:57;6.90;99.90
18105;DHT22;9179;50.968;3.134;2024-01-15T13:36:24;7.10;99.90
18105;DHT22;9179;50.968;3.134;2024-01-15T13:38:51;7.20;99.90
18105;DHT22;9179;50.968;3.134;2024-01-15T13:41:18;7.30;99.90
18105;DHT22;9179;50.968;3.134;2024-01-15T13:43:50;7.40;99.90
18105;DHT22;9179;50.968;3.134;2024-01-15T13:46:18;7.50;99.90
18105;DHT22;9179;50.968;3.134;2024-01-15T13:48:45;7.50;99.90
18105;DHT22;9179;50.968;3.134;2024-01-15T13:51:13;7.20;99.90
18105;DHT22;9179;50.968;3.134;2024-01-15T13:53:40;7.20;99.90
18105;DHT22;9179;50.968;3.134;2024-01-15T13:56:07;7.00;99.90
18105;DHT22;9179;50.968;3.134;2024-01-15T13:58:36;6.90;99.90
18105;DHT22;9179;50.968;3.134;2024-01-15T14:01:04;6.80;99.90
18105;DHT22;9179;50.968;3.134;2024-01-15T14:03:32;6.50;99.90
18105;DHT22;9179;50.968;3.134;2024-01-15T14:05:59;6.40;99.90
18105;DHT22;9179;50.968;3.134;2024-01-15T14:08:28;6.30;99.90
18105;DHT22;9179;50.968;3.134;2024-01-15T14:10:55;6.40;99.90
18105;DHT22;9179;50.968;3.134;2024-01-15T14:13:23;6.30;99.90
18105;DHT22;9179;50.968;3.134;2024-01-15T14:15:50;6.50;99.90
18105;DHT22;9179;50.968;3.134;2024-01-15T14:18:18;6.60;99.90
18105;DHT22;9179;50.968;3.134;2024-01-15T14:20:45;6.60;99.90
18105;DHT22;9179;50.968;3.134;2024-01-15T14:23:12;6.90;99.90
18105;DHT22;9179;50.968;3.134;2024-01-15T14:25:40;7.40;99.90
18105;DHT22;9179;50.968;3.134;2024-01-15T14:28:07;8.00;99.90
18105;DHT22;9179;50.968;3.134;2024-01-15T14:30:34;8.30;99.90
18105;DHT22;9179;50.968;3.134;2024-01-15T14:33:01;8.30;99.90
18105;DHT22;9179;50.968;3.134;2024-01-15T14:35:29;8.40;99.90
18105;DHT22;9179;50.968;3.134;2024-01-15T14:37:56;8.30;99.90
18105;DHT22;9179;50.968;3.134;2024-01-15T14:40:25;8.40;99.90
18105;DHT22;9179;50.968;3.134;2024-01-15T14:42:52;8.20;99.90
18105;DHT22;9179;50.968;3.134;2024-01-15T14:45:20;8.00;99.90
18105;DHT22;9179;50.968;3.134;2024-01-15T14:47:49;7.10;99.90
18105;DHT22;9179;50.968;3.134;2024-01-15T14:50:16;6.80;99.90
18105;DHT22;9179;50.968;3.134;2024-01-15T14:52:45;7.40;99.90
18105;DHT22;9179;50.968;3.134;2024-01-15T14:55:13;7.90;99.90
18105;DHT22;9179;50.968;3.134;2024-01-15T14:57:40;7.90;99.90
18105;DHT22;9179;50.968;3.134;2024-01-15T15:00:07;8.00;99.90
18105;DHT22;9179;50.968;3.134;2024-01-15T15:02:35;8.20;99.90
18105;DHT22;9179;50.968;3.134;2024-01-15T15:05:01;8.60;99.90
18105;DHT22;9179;50.968;3.134;2024-01-15T15:07:28;8.40;99.90
18105;DHT22;9179;50.968;3.134;2024-01-15T15:09:57;8.40;99.90
18105;DHT22;9179;50.968;3.134;2024-01-15T15:12:24;8.30;99.90
18105;DHT22;9179;50.968;3.134;2024-01-15T15:14:52;8.40;99.90
18105;DHT22;9179;50.968;3.134;2024-01-15T15:17:19;8.70;99.90
18105;DHT22;9179;50.968;3.134;2024-01-15T15:19:47;8.40;99.90
18105;DHT22;9179;50.968;3.134;2024-01-15T15:22:14;7.80;99.90
18105;DHT22;9179;50.968;3.134;2024-01-15T15:24:41;7.10;99.90
18105;DHT22;9179;50.968;3.134;2024-01-15T15:27:11;6.50;99.90
18105;DHT22;9179;50.968;3.134;2024-01-15T15:29:38;6.10;99.90
18105;DHT22;9179;50.968;3.134;2024-01-15T15:32:05;5.90;99.90
18105;DHT22;9179;50.968;3.134;2024-01-15T15:34:32;5.80;99.90
18105;DHT22;9179;50.968;3.134;2024-01-15T15:37:00;5.80;99.90
18105;DHT22;9179;50.968;3.134;2024-01-15T15:39:27;5.90;99.90
18105;DHT22;9179;50.968;3.134;2024-01-15T15:41:55;5.90;99.90
18105;DHT22;9179;50.968;3.134;2024-01-15T15:44:24;5.90;99.90
18105;DHT22;9179;50.968;3.134;2024-01-15T15:46:51;5.70;99.90
18105;DHT22;9179;50.968;3.134;2024-01-15T15:49:18;5.40;99.90
18105;DHT22;9179;50.968;3.134;2024-01-15T15:51:45;5.30;99.90
18105;DHT22;9179;50.968;3.134;2024-01-15T15:54:13;5.30;99.90
18105;DHT22;9179;50.968;3.134;2024-01-15T15:56:41;5.30;99.90
18105;DHT22;9179;50.968;3.134;2024-01-15T15:59:13;5.00;99.90
18105;DHT22;9179;50.968;3.134;2024-01-15T16:01:44;4.70;99.90
18105;DHT22;9179;50.968;3.134;2024-01-15T16:04:12;4.60;99.90